sensor_id;sensor_type;location;lat;lon;timestamp;P1;durP1;ratioP1;P2;durP2;ratioP2
24159;SDS011;62385;41.594;23.808;2023-05-10T00:01:24;1.10;;;0.82;;
24159;SDS011;62385;41.594;23.808;2023-05-10T00:03:49;1.45;;;1.08;;
24159;SDS011;62385;41.594;23.808;2023-05-10T00:06:15;1.05;;;0.90;;
24159;SDS011;62385;41.594;23.808;2023-05-10T00:08:41;1.63;;;1.15;;
24159;SDS011;62385;41.594;23.808;2023-05-10T00:11:06;1.95;;;0.93;;
24159;SDS011;62385;41.594;23.808;2023-05-10T00:13:32;3.55;;;1.17;;
24159;SDS011;62385;41.594;23.808;2023-05-10T00:15:58;1.25;;;0.80;;
24159;SDS011;62385;41.594;23.808;2023-05-10T00:18:23;1.90;;;1.23;;
24159;SDS011;62385;41.594;23.808;2023-05-10T00:20:49;1.52;;;1.10;;
24159;SDS011;62385;41.594;23.808;2023-05-10T00:23:14;1.20;;;0.70;;
24159;SDS011;62385;41.594;23.808;2023-05-10T00:25:40;0.77;;;0.77;;
24159;SDS011;62385;41.594;23.808;2023-05-10T00:28:06;0.88;;;0.80;;
24159;SDS011;62385;41.594;23.808;2023-05-10T00:30:32;1.80;;;1.08;;
24159;SDS011;62385;41.594;23.808;2023-05-10T00:32:57;1.17;;;0.80;;
24159;SDS011;62385;41.594;23.808;2023-05-10T00:35:23;2.13;;;0.93;;
24159;SDS011;62385;41.594;23.808;2023-05-10T00:37:49;1.98;;;1.00;;
24159;SDS011;62385;41.594;23.808;2023-05-10T00:40:15;0.90;;;0.65;;
24159;SDS011;62385;41.594;23.808;2023-05-10T00:42:44;1.50;;;0.95;;
24159;SDS011;62385;41.594;23.808;2023-05-10T00:45:09;2.38;;;0.70;;
24159;SDS011;62385;41.594;23.808;2023-05-10T00:47:36;1.05;;;0.50;;
24159;SDS011;62385;41.594;23.808;2023-05-10T00:50:02;1.17;;;0.88;;
24159;SDS011;62385;41.594;23.808;2023-05-10T00:52:30;0.55;;;0.55;;
24159;SDS011;62385;41.594;23.808;2023-05-10T00:54:57;1.05;;;0.80;;
24159;SDS011;62385;41.594;23.808;2023-05-10T00:57:23;1.05;;;0.70;;
24159;SDS011;62385;41.594;23.808;2023-05-10T00:59:50;1.27;;;0.80;;
24159;SDS011;62385;41.594;23.808;2023-05-10T01:02:17;1.15;;;0.57;;
24159;SDS011;62385;41.594;23.808;2023-05-10T01:04:42;1.55;;;1.05;;
24159;SDS011;62385;41.594;23.808;2023-05-10T01:07:08;1.23;;;0.90;;
24159;SDS011;62385;41.594;23.808;2023-05-10T01:09:34;1.65;;;0.50;;
24159;SDS011;62385;41.594;23.808;2023-05-10T01:12:00;1.65;;;0.80;;
24159;SDS011;62385;41.594;23.808;2023-05-10T01:14:28;0.85;;;0.50;;
24159;SDS011;62385;41.594;23.808;2023-05-10T01:16:54;0.30;;;0.30;;
24159;SDS011;62385;41.594;23.808;2023-05-10T01:19:26;0.55;;;0.43;;
24159;SDS011;62385;41.594;23.808;2023-05-10T01:27:20;0.85;;;0.70;;
24159;SDS011;62385;41.594;23.808;2023-05-10T01:35:35;0.90;;;0.70;;
24159;SDS011;62385;41.594;23.808;2023-05-10T01:38:19;0.73;;;0.50;;
24159;SDS011;62385;41.594;23.808;2023-05-10T01:44:23;1.30;;;0.90;;
24159;SDS011;62385;41.594;23.808;2023-05-10T01:46:31;0.75;;;0.63;;
24159;SDS011;62385;41.594;23.808;2023-05-10T01:49:00;0.30;;;0.30;;
24159;SDS011;62385;41.594;23.808;2023-05-10T01:51:31;1.92;;;0.60;;
24159;SDS011;62385;41.594;23.808;2023-05-10T01:54:13;1.17;;;0.40;;
24159;SDS011;62385;41.594;23.808;2023-05-10T01:56:50;1.90;;;0.68;;
24159;SDS011;62385;41.594;23.808;2023-05-10T01:59:21;0.75;;;0.57;;
24159;SDS011;62385;41.594;23.808;2023-05-10T02:01:57;0.77;;;0.57;;
24159;SDS011;62385;41.594;23.808;2023-05-10T02:04:25;0.85;;;0.55;;
24159;SDS011;62385;41.594;23.808;2023-05-10T02:06:52;0.90;;;0.50;;
24159;SDS011;62385;41.594;23.808;2023-05-10T02:09:27;1.08;;;0.68;;
24159;SDS011;62385;41.594;23.808;2023-05-10T02:12:01;0.52;;;0.43;;
24159;SDS011;62385;41.594;23.808;2023-05-10T02:14:30;1.20;;;0.57;;
24159;SDS011;62385;41.594;23.808;2023-05-10T02:16:58;0.65;;;0.38;;
24159;SDS011;62385;41.594;23.808;2023-05-10T02:19:27;1.60;;;0.70;;
24159;SDS011;62385;41.594;23.808;2023-05-10T02:21:55;0.55;;;0.35;;
24159;SDS011;62385;41.594;23.808;2023-05-10T02:24:22;0.50;;;0.50;;
24159;SDS011;62385;41.594;23.808;2023-05-10T02:26:50;0.35;;;0.25;;
24159;SDS011;62385;41.594;23.808;2023-05-10T02:29:18;0.73;;;0.52;;
24159;SDS011;62385;41.594;23.808;2023-05-10T02:31:47;1.17;;;0.88;;
24159;SDS011;62385;41.594;23.808;2023-05-10T02:34:13;0.70;;;0.70;;
24159;SDS011;62385;41.594;23.808;2023-05-10T02:36:39;1.65;;;1.02;;
24159;SDS011;62385;41.594;23.808;2023-05-10T02:39:08;0.60;;;0.50;;
24159;SDS011;62385;41.594;23.808;2023-05-10T02:41:37;0.82;;;0.50;;
24159;SDS011;62385;41.594;23.808;2023-05-10T02:44:07;0.77;;;0.50;;
24159;SDS011;62385;41.594;23.808;2023-05-10T02:46:35;2.30;;;0.57;;
24159;SDS011;62385;41.594;23.808;2023-05-10T02:49:02;2.67;;;0.85;;
24159;SDS011;62385;41.594;23.808;2023-05-10T02:51:32;0.57;;;0.45;;
24159;SDS011;62385;41.594;23.808;2023-05-10T02:54:03;0.68;;;0.55;;
24159;SDS011;62385;41.594;23.808;2023-05-10T02:57:03;0.38;;;0.32;;
24159;SDS011;62385;41.594;23.808;2023-05-10T02:59:39;1.50;;;0.55;;
24159;SDS011;62385;41.594;23.808;2023-05-10T03:02:05;1.00;;;0.90;;
24159;SDS011;62385;41.594;23.808;2023-05-10T03:04:35;0.52;;;0.30;;
24159;SDS011;62385;41.594;23.808;2023-05-10T03:07:07;1.00;;;0.90;;
24159;SDS011;62385;41.594;23.808;2023-05-10T03:09:37;0.90;;;0.68;;
24159;SDS011;62385;41.594;23.808;2023-05-10T03:18:07;0.50;;;0.45;;
24159;SDS011;62385;41.594;23.808;2023-05-10T03:20:57;1.23;;;0.88;;
24159;SDS011;62385;41.594;23.808;2023-05-10T03:23:27;1.08;;;0.68;;
24159;SDS011;62385;41.594;23.808;2023-05-10T03:26:07;0.90;;;0.80;;
24159;SDS011;62385;41.594;23.808;2023-05-10T03:28:39;0.77;;;0.52;;
24159;SDS011;62385;41.594;23.808;2023-05-10T03:31:09;1.80;;;0.40;;
24159;SDS011;62385;41.594;23.808;2023-05-10T03:33:45;1.90;;;1.05;;
24159;SDS011;62385;41.594;23.808;2023-05-10T03:36:41;6.47;;;3.42;;
24159;SDS011;62385;41.594;23.808;2023-05-10T03:39:09;4.07;;;1.58;;
24159;SDS011;62385;41.594;23.808;2023-05-10T03:41:36;2.83;;;1.08;;
24159;SDS011;62385;41.594;23.808;2023-05-10T03:44:02;0.57;;;0.50;;
24159;SDS011;62385;41.594;23.808;2023-05-10T03:46:46;0.98;;;0.52;;
24159;SDS011;62385;41.594;23.808;2023-05-10T03:49:21;0.88;;;0.55;;
24159;SDS011;62385;41.594;23.808;2023-05-10T03:51:49;0.82;;;0.45;;
24159;SDS011;62385;41.594;23.808;2023-05-10T03:54:18;2.25;;;1.20;;
24159;SDS011;62385;41.594;23.808;2023-05-10T03:56:47;3.67;;;2.28;;
24159;SDS011;62385;41.594;23.808;2023-05-10T03:59:35;3.35;;;1.63;;
24159;SDS011;62385;41.594;23.808;2023-05-10T04:02:06;1.27;;;0.98;;
24159;SDS011;62385;41.594;23.808;2023-05-10T04:04:37;2.92;;;2.17;;
24159;SDS011;62385;41.594;23.808;2023-05-10T04:07:27;1.85;;;1.23;;
24159;SDS011;62385;41.594;23.808;2023-05-10T04:09:55;1.17;;;0.60;;
24159;SDS011;62385;41.594;23.808;2023-05-10T04:12:29;0.50;;;0.50;;
24159;SDS011;62385;41.594;23.808;2023-05-10T04:14:55;2.58;;;1.58;;
24159;SDS011;62385;41.594;23.808;2023-05-10T04:17:20;1.10;;;0.63;;
24159;SDS011;62385;41.594;23.808;2023-05-10T04:19:49;0.85;;;0.45;;
24159;SDS011;62385;41.594;23.808;2023-05-10T04:22:20;0.63;;;0.60;;
24159;SDS011;62385;41.594;23.808;2023-05-10T04:24:45;1.27;;;0.55;;
24159;SDS011;62385;41.594;23.808;2023-05-10T04:27:11;5.47;;;0.80;;
24159;SDS011;62385;41.594;23.808;2023-05-10T04:29:36;1.92;;;0.63;;
24159;SDS011;62385;41.594;23.808;2023-05-10T04:32:03;1.02;;;0.88;;
24159;SDS011;62385;41.594;23.808;2023-05-10T04:34:29;0.57;;;0.43;;
24159;SDS011;62385;41.594;23.808;2023-05-10T04:36:55;1.90;;;0.85;;
24159;SDS011;62385;41.594;23.808;2023-05-10T04:39:20;0.68;;;0.43;;
24159;SDS011;62385;41.594;23.808;2023-05-10T04:41:46;0.93;;;0.70;;
24159;SDS011;62385;41.594;23.808;2023-05-10T04:44:11;0.70;;;0.57;;
24159;SDS011;62385;41.594;23.808;2023-05-10T04:46:38;1.60;;;0.85;;
24159;SDS011;62385;41.594;23.808;2023-05-10T04:49:04;0.50;;;0.47;;
24159;SDS011;62385;41.594;23.808;2023-05-10T04:51:29;13.73;;;6.07;;
24159;SDS011;62385;41.594;23.808;2023-05-10T04:53:56;6.15;;;3.22;;
24159;SDS011;62385;41.594;23.808;2023-05-10T04:56:21;4.80;;;3.33;;
24159;SDS011;62385;41.594;23.808;2023-05-10T04:58:47;1.05;;;0.95;;
24159;SDS011;62385;41.594;23.808;2023-05-10T05:01:13;3.88;;;2.60;;
24159;SDS011;62385;41.594;23.808;2023-05-10T05:03:39;3.58;;;1.35;;
24159;SDS011;62385;41.594;23.808;2023-05-10T05:06:05;2.10;;;1.30;;
24159;SDS011;62385;41.594;23.808;2023-05-10T05:08:31;3.65;;;1.88;;
24159;SDS011;62385;41.594;23.808;2023-05-10T05:10:57;0.93;;;0.70;;
24159;SDS011;62385;41.594;23.808;2023-05-10T05:13:22;6.00;;;0.70;;
24159;SDS011;62385;41.594;23.808;2023-05-10T05:15:49;3.17;;;1.02;;
24159;SDS011;62385;41.594;23.808;2023-05-10T05:18:15;9.30;;;4.32;;
24159;SDS011;62385;41.594;23.808;2023-05-10T05:20:40;5.28;;;3.92;;
24159;SDS011;62385;41.594;23.808;2023-05-10T05:23:06;7.40;;;3.30;;
24159;SDS011;62385;41.594;23.808;2023-05-10T05:25:31;6.30;;;3.78;;
24159;SDS011;62385;41.594;23.808;2023-05-10T05:27:57;4.07;;;2.67;;
24159;SDS011;62385;41.594;23.808;2023-05-10T05:30:23;7.72;;;2.95;;
24159;SDS011;62385;41.594;23.808;2023-05-10T05:32:48;25.83;;;8.57;;
24159;SDS011;62385;41.594;23.808;2023-05-10T05:35:14;19.63;;;7.18;;
24159;SDS011;62385;41.594;23.808;2023-05-10T05:37:39;4.85;;;3.33;;
24159;SDS011;62385;41.594;23.808;2023-05-10T05:40:05;9.52;;;3.53;;
24159;SDS011;62385;41.594;23.808;2023-05-10T05:42:31;3.47;;;2.63;;
24159;SDS011;62385;41.594;23.808;2023-05-10T05:44:57;3.28;;;1.65;;
24159;SDS011;62385;41.594;23.808;2023-05-10T05:47:23;3.40;;;1.35;;
24159;SDS011;62385;41.594;23.808;2023-05-10T05:49:49;4.97;;;2.25;;
24159;SDS011;62385;41.594;23.808;2023-05-10T05:52:14;2.25;;;1.38;;
24159;SDS011;62385;41.594;23.808;2023-05-10T05:54:40;5.32;;;4.28;;
24159;SDS011;62385;41.594;23.808;2023-05-10T05:57:05;5.10;;;2.67;;
24159;SDS011;62385;41.594;23.808;2023-05-10T05:59:31;3.67;;;2.70;;
24159;SDS011;62385;41.594;23.808;2023-05-10T06:01:56;1.20;;;0.82;;
24159;SDS011;62385;41.594;23.808;2023-05-10T06:04:23;3.55;;;1.08;;
24159;SDS011;62385;41.594;23.808;2023-05-10T06:06:49;2.58;;;1.58;;
24159;SDS011;62385;41.594;23.808;2023-05-10T06:09:15;0.63;;;0.60;;
24159;SDS011;62385;41.594;23.808;2023-05-10T06:11:41;0.90;;;0.55;;
24159;SDS011;62385;41.594;23.808;2023-05-10T06:14:06;2.95;;;2.00;;
24159;SDS011;62385;41.594;23.808;2023-05-10T06:16:35;5.80;;;3.70;;
24159;SDS011;62385;41.594;23.808;2023-05-10T06:19:02;2.33;;;1.80;;
24159;SDS011;62385;41.594;23.808;2023-05-10T06:21:28;1.95;;;0.60;;
24159;SDS011;62385;41.594;23.808;2023-05-10T06:23:54;1.80;;;0.73;;
24159;SDS011;62385;41.594;23.808;2023-05-10T06:26:20;4.47;;;1.73;;
24159;SDS011;62385;41.594;23.808;2023-05-10T06:28:46;1.30;;;1.20;;
24159;SDS011;62385;41.594;23.808;2023-05-10T06:31:12;0.73;;;0.70;;
24159;SDS011;62385;41.594;23.808;2023-05-10T06:33:37;1.27;;;0.80;;
24159;SDS011;62385;41.594;23.808;2023-05-10T06:36:03;2.22;;;0.80;;
24159;SDS011;62385;41.594;23.808;2023-05-10T06:38:29;1.48;;;0.90;;
24159;SDS011;62385;41.594;23.808;2023-05-10T06:40:54;1.10;;;0.50;;
24159;SDS011;62385;41.594;23.808;2023-05-10T06:43:20;1.63;;;0.90;;
24159;SDS011;62385;41.594;23.808;2023-05-10T06:45:45;1.13;;;0.70;;
24159;SDS011;62385;41.594;23.808;2023-05-10T06:48:13;3.30;;;1.08;;
24159;SDS011;62385;41.594;23.808;2023-05-10T06:50:38;1.15;;;0.60;;
24159;SDS011;62385;41.594;23.808;2023-05-10T06:53:05;0.77;;;0.38;;
24159;SDS011;62385;41.594;23.808;2023-05-10T06:55:31;0.68;;;0.55;;
24159;SDS011;62385;41.594;23.808;2023-05-10T06:57:56;3.13;;;1.02;;
24159;SDS011;62385;41.594;23.808;2023-05-10T07:00:22;0.65;;;0.57;;
24159;SDS011;62385;41.594;23.808;2023-05-10T07:02:48;8.95;;;0.73;;
24159;SDS011;62385;41.594;23.808;2023-05-10T07:05:13;0.70;;;0.70;;
24159;SDS011;62385;41.594;23.808;2023-05-10T07:07:41;1.50;;;0.80;;
24159;SDS011;62385;41.594;23.808;2023-05-10T07:10:07;0.40;;;0.40;;
24159;SDS011;62385;41.594;23.808;2023-05-10T07:12:34;0.88;;;0.77;;
24159;SDS011;62385;41.594;23.808;2023-05-10T07:15:00;2.00;;;1.23;;
24159;SDS011;62385;41.594;23.808;2023-05-10T07:17:26;1.35;;;1.05;;
24159;SDS011;62385;41.594;23.808;2023-05-10T07:19:52;0.55;;;0.38;;
24159;SDS011;62385;41.594;23.808;2023-05-10T07:22:17;0.63;;;0.50;;
24159;SDS011;62385;41.594;23.808;2023-05-10T07:24:43;2.30;;;0.98;;
24159;SDS011;62385;41.594;23.808;2023-05-10T07:27:09;1.02;;;0.52;;
24159;SDS011;62385;41.594;23.808;2023-05-10T07:29:34;6.15;;;1.50;;
24159;SDS011;62385;41.594;23.808;2023-05-10T07:32:01;1.45;;;0.95;;
24159;SDS011;62385;41.594;23.808;2023-05-10T07:34:26;1.50;;;0.95;;
24159;SDS011;62385;41.594;23.808;2023-05-10T07:36:53;0.55;;;0.47;;
24159;SDS011;62385;41.594;23.808;2023-05-10T07:39:19;1.13;;;0.57;;
24159;SDS011;62385;41.594;23.808;2023-05-10T07:41:45;0.70;;;0.50;;
24159;SDS011;62385;41.594;23.808;2023-05-10T07:44:11;0.70;;;0.47;;
24159;SDS011;62385;41.594;23.808;2023-05-10T07:46:37;0.60;;;0.60;;
24159;SDS011;62385;41.594;23.808;2023-05-10T07:49:03;1.85;;;1.05;;
24159;SDS011;62385;41.594;23.808;2023-05-10T07:51:30;1.45;;;1.08;;
24159;SDS011;62385;41.594;23.808;2023-05-10T07:53:56;0.80;;;0.70;;
24159;SDS011;62385;41.594;23.808;2023-05-10T07:56:24;1.98;;;0.85;;
24159;SDS011;62385;41.594;23.808;2023-05-10T07:58:52;0.40;;;0.38;;
24159;SDS011;62385;41.594;23.808;2023-05-10T08:01:20;3.03;;;1.60;;
24159;SDS011;62385;41.594;23.808;2023-05-10T08:03:46;0.90;;;0.80;;
24159;SDS011;62385;41.594;23.808;2023-05-10T08:06:13;0.82;;;0.55;;
24159;SDS011;62385;41.594;23.808;2023-05-10T08:08:40;1.25;;;0.70;;
24159;SDS011;62385;41.594;23.808;2023-05-10T08:11:06;0.57;;;0.47;;
24159;SDS011;62385;41.594;23.808;2023-05-10T08:13:32;0.80;;;0.80;;
24159;SDS011;62385;41.594;23.808;2023-05-10T08:15:58;1.25;;;0.88;;
24159;SDS011;62385;41.594;23.808;2023-05-10T08:18:25;1.13;;;0.73;;
24159;SDS011;62385;41.594;23.808;2023-05-10T08:20:52;0.98;;;0.63;;
24159;SDS011;62385;41.594;23.808;2023-05-10T08:23:18;1.27;;;0.55;;
24159;SDS011;62385;41.594;23.808;2023-05-10T08:25:43;0.65;;;0.55;;
24159;SDS011;62385;41.594;23.808;2023-05-10T08:28:09;0.85;;;0.52;;
24159;SDS011;62385;41.594;23.808;2023-05-10T08:30:35;1.60;;;0.85;;
24159;SDS011;62385;41.594;23.808;2023-05-10T08:33:00;1.35;;;1.00;;
24159;SDS011;62385;41.594;23.808;2023-05-10T08:35:26;0.95;;;0.65;;
24159;SDS011;62385;41.594;23.808;2023-05-10T08:37:51;1.05;;;0.60;;
24159;SDS011;62385;41.594;23.808;2023-05-10T08:40:17;1.98;;;0.73;;
24159;SDS011;62385;41.594;23.808;2023-05-10T08:42:49;1.27;;;0.55;;
24159;SDS011;62385;41.594;23.808;2023-05-10T08:45:39;1.27;;;0.95;;
24159;SDS011;62385;41.594;23.808;2023-05-10T08:48:06;0.52;;;0.40;;
24159;SDS011;62385;41.594;23.808;2023-05-10T08:50:40;0.40;;;0.35;;
24159;SDS011;62385;41.594;23.808;2023-05-10T08:53:11;0.45;;;0.40;;
24159;SDS011;62385;41.594;23.808;2023-05-10T08:55:41;2.42;;;0.60;;
24159;SDS011;62385;41.594;23.808;2023-05-10T08:58:08;0.90;;;0.63;;
24159;SDS011;62385;41.594;23.808;2023-05-10T09:00:34;2.75;;;0.77;;
24159;SDS011;62385;41.594;23.808;2023-05-10T09:03:02;1.02;;;0.75;;
24159;SDS011;62385;41.594;23.808;2023-05-10T09:05:28;1.55;;;0.60;;
24159;SDS011;62385;41.594;23.808;2023-05-10T09:07:54;2.22;;;1.23;;
24159;SDS011;62385;41.594;23.808;2023-05-10T09:10:20;1.05;;;0.95;;
24159;SDS011;62385;41.594;23.808;2023-05-10T09:12:47;1.98;;;1.30;;
24159;SDS011;62385;41.594;23.808;2023-05-10T09:15:16;0.93;;;0.85;;
24159;SDS011;62385;41.594;23.808;2023-05-10T09:17:45;1.30;;;1.10;;
24159;SDS011;62385;41.594;23.808;2023-05-10T09:20:12;2.20;;;1.33;;
24159;SDS011;62385;41.594;23.808;2023-05-10T09:22:38;3.53;;;1.13;;
24159;SDS011;62385;41.594;23.808;2023-05-10T09:25:04;1.70;;;0.90;;
24159;SDS011;62385;41.594;23.808;2023-05-10T09:27:33;1.27;;;0.75;;
24159;SDS011;62385;41.594;23.808;2023-05-10T09:30:00;0.95;;;0.80;;
24159;SDS011;62385;41.594;23.808;2023-05-10T09:32:42;0.73;;;0.73;;
24159;SDS011;62385;41.594;23.808;2023-05-10T09:35:16;14.82;;;1.17;;
24159;SDS011;62385;41.594;23.808;2023-05-10T09:37:43;0.73;;;0.60;;
24159;SDS011;62385;41.594;23.808;2023-05-10T09:40:21;0.68;;;0.50;;
24159;SDS011;62385;41.594;23.808;2023-05-10T09:42:53;0.88;;;0.88;;
24159;SDS011;62385;41.594;23.808;2023-05-10T09:45:34;0.60;;;0.45;;
24159;SDS011;62385;41.594;23.808;2023-05-10T09:48:01;1.35;;;0.73;;
24159;SDS011;62385;41.594;23.808;2023-05-10T09:50:28;0.95;;;0.50;;
24159;SDS011;62385;41.594;23.808;2023-05-10T09:52:55;0.90;;;0.63;;
24159;SDS011;62385;41.594;23.808;2023-05-10T09:55:26;0.70;;;0.68;;
24159;SDS011;62385;41.594;23.808;2023-05-10T09:58:04;7.63;;;0.70;;
24159;SDS011;62385;41.594;23.808;2023-05-10T10:00:35;0.70;;;0.50;;
24159;SDS011;62385;41.594;23.808;2023-05-10T10:03:02;0.70;;;0.28;;
24159;SDS011;62385;41.594;23.808;2023-05-10T10:05:29;0.70;;;0.30;;
24159;SDS011;62385;41.594;23.808;2023-05-10T10:07:56;0.20;;;0.10;;
24159;SDS011;62385;41.594;23.808;2023-05-10T10:10:24;0.60;;;0.30;;
24159;SDS011;62385;41.594;23.808;2023-05-10T10:12:50;0.38;;;0.30;;
24159;SDS011;62385;41.594;23.808;2023-05-10T10:15:17;0.50;;;0.40;;
24159;SDS011;62385;41.594;23.808;2023-05-10T10:17:43;0.38;;;0.22;;
24159;SDS011;62385;41.594;23.808;2023-05-10T10:20:09;0.30;;;0.30;;
24159;SDS011;62385;41.594;23.808;2023-05-10T10:22:36;0.43;;;0.35;;
24159;SDS011;62385;41.594;23.808;2023-05-10T10:25:03;0.73;;;0.28;;
24159;SDS011;62385;41.594;23.808;2023-05-10T10:27:42;0.32;;;0.20;;
24159;SDS011;62385;41.594;23.808;2023-05-10T10:35:43;0.77;;;0.55;;
24159;SDS011;62385;41.594;23.808;2023-05-10T10:38:10;0.77;;;0.30;;
24159;SDS011;62385;41.594;23.808;2023-05-10T10:40:38;0.98;;;0.40;;
24159;SDS011;62385;41.594;23.808;2023-05-10T10:49:08;0.75;;;0.75;;
24159;SDS011;62385;41.594;23.808;2023-05-10T10:51:37;1.23;;;0.85;;
24159;SDS011;62385;41.594;23.808;2023-05-10T10:54:09;0.38;;;0.35;;
24159;SDS011;62385;41.594;23.808;2023-05-10T10:56:35;0.57;;;0.30;;
24159;SDS011;62385;41.594;23.808;2023-05-10T10:59:01;0.63;;;0.45;;
24159;SDS011;62385;41.594;23.808;2023-05-10T11:01:27;0.40;;;0.30;;
24159;SDS011;62385;41.594;23.808;2023-05-10T11:06:32;1.40;;;0.63;;
24159;SDS011;62385;41.594;23.808;2023-05-10T11:09:09;0.50;;;0.50;;
24159;SDS011;62385;41.594;23.808;2023-05-10T11:11:48;0.20;;;0.00;;
24159;SDS011;62385;41.594;23.808;2023-05-10T11:14:18;0.45;;;0.40;;
24159;SDS011;62385;41.594;23.808;2023-05-10T11:16:46;0.20;;;0.10;;
24159;SDS011;62385;41.594;23.808;2023-05-10T11:19:12;0.30;;;0.20;;
24159;SDS011;62385;41.594;23.808;2023-05-10T11:21:46;0.20;;;0.20;;
24159;SDS011;62385;41.594;23.808;2023-05-10T11:24:20;4.70;;;0.57;;
24159;SDS011;62385;41.594;23.808;2023-05-10T11:26:50;0.55;;;0.30;;
24159;SDS011;62385;41.594;23.808;2023-05-10T11:29:17;0.40;;;0.25;;
24159;SDS011;62385;41.594;23.808;2023-05-10T11:31:43;0.73;;;0.30;;
24159;SDS011;62385;41.594;23.808;2023-05-10T11:34:25;0.40;;;0.20;;
24159;SDS011;62385;41.594;23.808;2023-05-10T11:36:55;3.40;;;1.52;;
24159;SDS011;62385;41.594;23.808;2023-05-10T11:39:29;1.65;;;0.85;;
24159;SDS011;62385;41.594;23.808;2023-05-10T11:41:56;6.25;;;1.98;;
24159;SDS011;62385;41.594;23.808;2023-05-10T11:44:22;1.05;;;0.40;;
24159;SDS011;62385;41.594;23.808;2023-05-10T11:46:48;0.57;;;0.40;;
24159;SDS011;62385;41.594;23.808;2023-05-10T11:49:14;1.00;;;0.38;;
24159;SDS011;62385;41.594;23.808;2023-05-10T11:51:40;0.63;;;0.30;;
24159;SDS011;62385;41.594;23.808;2023-05-10T11:54:08;1.75;;;0.85;;
24159;SDS011;62385;41.594;23.808;2023-05-10T11:56:35;0.82;;;0.30;;
24159;SDS011;62385;41.594;23.808;2023-05-10T11:59:02;0.40;;;0.20;;
24159;SDS011;62385;41.594;23.808;2023-05-10T12:01:28;0.60;;;0.47;;
24159;SDS011;62385;41.594;23.808;2023-05-10T12:03:56;0.30;;;0.30;;
24159;SDS011;62385;41.594;23.808;2023-05-10T12:06:26;0.47;;;0.30;;
24159;SDS011;62385;41.594;23.808;2023-05-10T12:08:54;0.20;;;0.20;;
24159;SDS011;62385;41.594;23.808;2023-05-10T12:11:20;0.30;;;0.30;;
24159;SDS011;62385;41.594;23.808;2023-05-10T12:13:50;0.65;;;0.38;;
24159;SDS011;62385;41.594;23.808;2023-05-10T12:16:17;0.30;;;0.30;;
24159;SDS011;62385;41.594;23.808;2023-05-10T12:18:45;0.20;;;0.17;;
24159;SDS011;62385;41.594;23.808;2023-05-10T12:21:13;0.63;;;0.38;;
24159;SDS011;62385;41.594;23.808;2023-05-10T12:23:40;0.30;;;0.30;;
24159;SDS011;62385;41.594;23.808;2023-05-10T12:26:07;0.47;;;0.40;;
24159;SDS011;62385;41.594;23.808;2023-05-10T12:28:35;0.93;;;0.82;;
24159;SDS011;62385;41.594;23.808;2023-05-10T12:31:02;1.23;;;0.60;;
24159;SDS011;62385;41.594;23.808;2023-05-10T12:33:35;0.60;;;0.50;;
24159;SDS011;62385;41.594;23.808;2023-05-10T12:36:11;4.60;;;1.15;;
24159;SDS011;62385;41.594;23.808;2023-05-10T12:38:38;0.47;;;0.38;;
24159;SDS011;62385;41.594;23.808;2023-05-10T12:41:17;4.25;;;1.13;;
24159;SDS011;62385;41.594;23.808;2023-05-10T12:43:44;4.70;;;1.30;;
24159;SDS011;62385;41.594;23.808;2023-05-10T12:46:13;2.53;;;0.88;;
24159;SDS011;62385;41.594;23.808;2023-05-10T12:48:43;0.85;;;0.55;;
24159;SDS011;62385;41.594;23.808;2023-05-10T12:51:09;0.70;;;0.60;;
24159;SDS011;62385;41.594;23.808;2023-05-10T12:53:38;2.78;;;0.95;;
24159;SDS011;62385;41.594;23.808;2023-05-10T12:56:04;1.13;;;0.52;;
24159;SDS011;62385;41.594;23.808;2023-05-10T12:58:31;0.70;;;0.40;;
24159;SDS011;62385;41.594;23.808;2023-05-10T13:00:57;0.40;;;0.40;;
24159;SDS011;62385;41.594;23.808;2023-05-10T13:03:24;0.30;;;0.28;;
24159;SDS011;62385;41.594;23.808;2023-05-10T13:05:50;1.73;;;0.70;;
24159;SDS011;62385;41.594;23.808;2023-05-10T13:08:16;0.82;;;0.50;;
24159;SDS011;62385;41.594;23.808;2023-05-10T13:10:41;2.92;;;1.73;;
24159;SDS011;62385;41.594;23.808;2023-05-10T13:13:07;1.15;;;0.60;;
24159;SDS011;62385;41.594;23.808;2023-05-10T13:15:33;0.45;;;0.25;;
24159;SDS011;62385;41.594;23.808;2023-05-10T13:17:59;0.32;;;0.30;;
24159;SDS011;62385;41.594;23.808;2023-05-10T13:20:25;0.57;;;0.40;;
24159;SDS011;62385;41.594;23.808;2023-05-10T13:22:51;2.50;;;0.95;;
24159;SDS011;62385;41.594;23.808;2023-05-10T13:25:17;0.95;;;0.68;;
24159;SDS011;62385;41.594;23.808;2023-05-10T13:27:42;0.40;;;0.30;;
24159;SDS011;62385;41.594;23.808;2023-05-10T13:30:08;0.50;;;0.32;;
24159;SDS011;62385;41.594;23.808;2023-05-10T13:32:34;0.28;;;0.22;;
24159;SDS011;62385;41.594;23.808;2023-05-10T13:35:00;0.70;;;0.65;;
24159;SDS011;62385;41.594;23.808;2023-05-10T13:37:26;0.75;;;0.30;;
24159;SDS011;62385;41.594;23.808;2023-05-10T13:39:52;0.47;;;0.20;;
24159;SDS011;62385;41.594;23.808;2023-05-10T13:42:19;0.30;;;0.20;;
24159;SDS011;62385;41.594;23.808;2023-05-10T13:44:44;0.20;;;0.20;;
24159;SDS011;62385;41.594;23.808;2023-05-10T13:47:10;0.40;;;0.35;;
24159;SDS011;62385;41.594;23.808;2023-05-10T13:49:36;0.50;;;0.20;;
24159;SDS011;62385;41.594;23.808;2023-05-10T13:52:02;1.08;;;0.30;;
24159;SDS011;62385;41.594;23.808;2023-05-10T13:54:41;0.68;;;0.30;;
24159;SDS011;62385;41.594;23.808;2023-05-10T13:57:06;0.30;;;0.20;;
24159;SDS011;62385;41.594;23.808;2023-05-10T13:59:32;0.20;;;0.20;;
24159;SDS011;62385;41.594;23.808;2023-05-10T14:01:58;3.50;;;0.35;;
24159;SDS011;62385;41.594;23.808;2023-05-10T14:04:24;0.30;;;0.20;;
24159;SDS011;62385;41.594;23.808;2023-05-10T14:06:50;0.40;;;0.22;;
24159;SDS011;62385;41.594;23.808;2023-05-10T14:09:16;0.82;;;0.30;;
24159;SDS011;62385;41.594;23.808;2023-05-10T14:11:41;0.28;;;0.20;;
24159;SDS011;62385;41.594;23.808;2023-05-10T14:14:11;1.00;;;0.55;;
24159;SDS011;62385;41.594;23.808;2023-05-10T14:16:43;0.82;;;0.38;;
24159;SDS011;62385;41.594;23.808;2023-05-10T14:19:09;0.25;;;0.20;;
24159;SDS011;62385;41.594;23.808;2023-05-10T14:21:35;0.40;;;0.40;;
24159;SDS011;62385;41.594;23.808;2023-05-10T14:24:00;0.30;;;0.20;;
24159;SDS011;62385;41.594;23.808;2023-05-10T14:26:26;0.73;;;0.38;;
24159;SDS011;62385;41.594;23.808;2023-05-10T14:28:53;0.30;;;0.20;;
24159;SDS011;62385;41.594;23.808;2023-05-10T14:31:18;0.68;;;0.52;;
24159;SDS011;62385;41.594;23.808;2023-05-10T14:33:50;0.52;;;0.50;;
24159;SDS011;62385;41.594;23.808;2023-05-10T14:36:15;0.90;;;0.45;;
24159;SDS011;62385;41.594;23.808;2023-05-10T14:38:41;0.30;;;0.25;;
24159;SDS011;62385;41.594;23.808;2023-05-10T14:41:06;0.20;;;0.20;;
24159;SDS011;62385;41.594;23.808;2023-05-10T14:43:33;0.30;;;0.13;;
24159;SDS011;62385;41.594;23.808;2023-05-10T14:45:59;1.75;;;0.73;;
24159;SDS011;62385;41.594;23.808;2023-05-10T14:48:25;0.30;;;0.22;;
24159;SDS011;62385;41.594;23.808;2023-05-10T14:50:50;0.22;;;0.20;;
24159;SDS011;62385;41.594;23.808;2023-05-10T14:56:03;0.73;;;0.47;;
24159;SDS011;62385;41.594;23.808;2023-05-10T14:58:28;0.30;;;0.20;;
24159;SDS011;62385;41.594;23.808;2023-05-10T15:00:55;0.60;;;0.20;;
24159;SDS011;62385;41.594;23.808;2023-05-10T15:03:21;1.00;;;0.60;;
24159;SDS011;62385;41.594;23.808;2023-05-10T15:05:48;0.28;;;0.17;;
24159;SDS011;62385;41.594;23.808;2023-05-10T15:08:13;1.42;;;0.70;;
24159;SDS011;62385;41.594;23.808;2023-05-10T15:10:39;0.50;;;0.30;;
24159;SDS011;62385;41.594;23.808;2023-05-10T15:13:05;0.35;;;0.20;;
24159;SDS011;62385;41.594;23.808;2023-05-10T15:15:30;0.50;;;0.50;;